Stations météo

réclame
Mon MeteoGroup
Siguenza, Espagne (8150): Température de l'air & dewpoint: 15.02.2018 16:00:00 - 21.02.2018 16:00:00 (CET)Siguenza, Espagne (8150): visibility: 15.02.2018 16:00:00 - 21.02.2018 16:00:00 (CET)Siguenza, Espagne (8150): Ensoleillement: 15.02.2018 16:00:00 - 21.02.2018 16:00:00 (CET)Siguenza, Espagne (8150): Quantités de précipitations: 15.02.2018 16:00:00 - 21.02.2018 16:00:00 (CET)
Date & Time tt [°C] td [°C] vv [km] sd [min] rr [mm]
21.02.2018 16:00:00 - - - - -
21.02.2018 15:00:00 5,3 -3,6 20 15 0,0
21.02.2018 14:00:00 4,6 -3,9 20 15 0,0
21.02.2018 13:00:00 5,6 -3,3 20 47 -
21.02.2018 12:00:00 4,6 -3,3 20 38 0,0
21.02.2018 11:00:00 4,1 -2,7 20 47 0,0
21.02.2018 10:00:00 2,8 -3,0 20 44 0,0
21.02.2018 09:00:00 2,0 -3,0 20 31 0,0
21.02.2018 08:00:00 1,4 -2,0 20 0 0,4
21.02.2018 07:00:00 2,4 0,6 20 0 -
21.02.2018 06:00:00 2,2 0,6 20 0 0,0
21.02.2018 05:00:00 1,6 0,2 20 0 0,0
21.02.2018 04:00:00 1,4 -0,7 20 0 0,0
21.02.2018 03:00:00 1,6 -0,3 20 0 0,0
21.02.2018 02:00:00 0,5 -1,0 20 0 0,0
21.02.2018 01:00:00 -0,5 -1,2 20 0 -
21.02.2018 00:00:00 -1,0 -2,0 20 0 0,0
20.02.2018 23:00:00 -0,3 -2,0 20 0 0,0
20.02.2018 22:00:00 1,6 -0,7 20 0 0,0
20.02.2018 21:00:00 3,1 -0,7 20 0 0,0
20.02.2018 20:00:00 5,1 0,0 20 0 0,0
20.02.2018 19:00:00 6,1 0,2 20 8 -
20.02.2018 18:00:00 8,9 -1,2 20 18 0,0
20.02.2018 17:00:00 10,5 2,3 20 24 0,0
20.02.2018 16:00:00 9,5 2,3 20 13 0,0
20.02.2018 15:00:00 10,0 2,9 20 42 0,0
20.02.2018 14:00:00 8,9 2,7 20 37 0,0
20.02.2018 13:00:00 7,9 2,3 20 - -
20.02.2018 12:00:00 - - - - -
20.02.2018 11:00:00 6,2 3,4 20 0 0,0
20.02.2018 10:00:00 6,2 3,8 20 0 0,0
20.02.2018 09:00:00 5,2 3,4 20 0 0,0
20.02.2018 08:00:00 5,0 3,2 20 0 0,0
20.02.2018 07:00:00 4,7 2,9 20 0 -
20.02.2018 06:00:00 4,2 2,9 20 0 0,0
20.02.2018 05:00:00 3,8 2,7 20 0 0,0
20.02.2018 04:00:00 4,0 2,7 20 0 0,0
20.02.2018 03:00:00 4,1 2,7 20 0 0,0
20.02.2018 02:00:00 4,5 3,0 20 0 0,0
20.02.2018 01:00:00 4,4 2,9 20 0 -
20.02.2018 00:00:00 5,2 3,4 20 0 0,0
19.02.2018 23:00:00 5,7 3,9 20 0 0,0
19.02.2018 22:00:00 6,0 4,3 20 0 0,0
19.02.2018 21:00:00 5,7 4,1 20 0 0,2
19.02.2018 20:00:00 6,1 5,0 20 0 0,2
19.02.2018 19:00:00 5,9 5,0 20 0 -
19.02.2018 18:00:00 6,2 4,6 6 0 1,4
19.02.2018 17:00:00 7,3 4,6 18 0 0,4
19.02.2018 16:00:00 10,3 3,4 20 12 0,0
19.02.2018 15:00:00 10,5 3,2 20 13 0,0
19.02.2018 14:00:00 10,0 2,7 20 41 0,0
19.02.2018 13:00:00 8,7 2,9 20 6 -
19.02.2018 12:00:00 - - - - -
19.02.2018 11:00:00 6,8 2,3 20 19 0,0
19.02.2018 10:00:00 5,1 1,9 20 7 0,0
19.02.2018 09:00:00 2,3 1,5 20 1 0,0
19.02.2018 08:00:00 1,3 0,2 20 0 0,0
19.02.2018 07:00:00 2,2 0,9 20 0 -
19.02.2018 06:00:00 3,0 1,3 20 0 0,0
19.02.2018 05:00:00 2,5 0,6 20 0 0,0
19.02.2018 04:00:00 2,5 1,3 20 0 0,0
19.02.2018 03:00:00 1,6 0,2 20 0 0,0
19.02.2018 02:00:00 2,7 0,2 20 0 0,0
19.02.2018 01:00:00 3,9 1,3 20 0 -
19.02.2018 00:00:00 4,8 1,5 20 0 0,0
18.02.2018 23:00:00 4,3 1,5 20 0 0,0
18.02.2018 22:00:00 4,8 1,3 20 0 0,0
18.02.2018 21:00:00 4,8 1,5 20 0 0,0
18.02.2018 20:00:00 5,4 1,7 20 0 0,0
18.02.2018 19:00:00 6,6 1,7 20 0 -
18.02.2018 18:00:00 8,2 2,1 20 8 0,0
18.02.2018 17:00:00 9,8 1,9 20 33 0,0
18.02.2018 16:00:00 9,3 1,9 20 29 0,0
18.02.2018 15:00:00 9,6 1,5 20 59 0,0
18.02.2018 14:00:00 8,2 -0,7 20 60 0,0
18.02.2018 13:00:00 7,1 -1,7 20 60 -
18.02.2018 12:00:00 5,4 -2,5 20 53 0,0
18.02.2018 11:00:00 3,5 -3,0 20 53 0,0
18.02.2018 10:00:00 1,4 -2,2 20 40 0,0
18.02.2018 09:00:00 -1,7 -3,0 20 36 0,0
18.02.2018 08:00:00 -3,9 -5,1 20 0 0,0
18.02.2018 07:00:00 -2,8 -4,2 20 0 -
18.02.2018 06:00:00 -2,6 -4,2 20 0 0,0
18.02.2018 05:00:00 -1,8 -3,6 20 0 0,0
18.02.2018 04:00:00 -1,7 -3,3 20 0 0,0
18.02.2018 03:00:00 0,0 -2,7 20 0 0,0
18.02.2018 02:00:00 0,8 -2,5 20 0 0,0
18.02.2018 01:00:00 0,1 -2,2 20 0 -
18.02.2018 00:00:00 1,3 -1,2 20 0 0,0
17.02.2018 23:00:00 1,2 -0,5 20 0 0,0
17.02.2018 22:00:00 1,9 -0,3 20 0 0,0
17.02.2018 21:00:00 2,3 0,0 20 0 0,0
17.02.2018 20:00:00 4,3 0,2 20 0 0,0
17.02.2018 19:00:00 5,2 1,7 20 2 -
17.02.2018 18:00:00 6,9 2,1 20 5 0,0
17.02.2018 17:00:00 7,0 2,5 20 0 0,0
17.02.2018 16:00:00 6,5 3,4 20 0 0,0
17.02.2018 15:00:00 6,5 4,3 20 0 0,0
17.02.2018 14:00:00 6,8 4,5 20 0 0,0
17.02.2018 13:00:00 8,6 4,8 20 0 -
17.02.2018 12:00:00 10,8 4,6 20 39 0,0
17.02.2018 11:00:00 9,2 5,0 20 44 0,0
17.02.2018 10:00:00 6,1 5,0 20 8 0,0
17.02.2018 09:00:00 3,9 3,6 20 0 0,0
17.02.2018 08:00:00 3,1 2,3 17 0 0,0
17.02.2018 07:00:00 4,7 3,9 20 0 -
17.02.2018 06:00:00 5,7 4,8 20 0 0,0
17.02.2018 05:00:00 6,4 6,1 - 0 0,0
17.02.2018 04:00:00 6,5 6,2 0,2 0 0,0
17.02.2018 03:00:00 6,1 5,6 2,1 0 0,0
17.02.2018 02:00:00 5,6 5,1 6 0 0,0
17.02.2018 01:00:00 5,1 4,6 8 0 -
17.02.2018 00:00:00 4,7 4,3 6 0 0,0
16.02.2018 23:00:00 5,6 4,6 7 0 0,0
16.02.2018 22:00:00 6,4 5,0 20 0 0,0
16.02.2018 21:00:00 7,7 5,0 20 0 0,0
16.02.2018 20:00:00 10,4 6,8 20 0 0,0
16.02.2018 19:00:00 12,4 7,1 20 0 -
16.02.2018 18:00:00 13,7 6,1 20 1 0,0
16.02.2018 17:00:00 14,2 6,2 20 7 0,0
16.02.2018 16:00:00 14,3 5,9 20 34 0,0
16.02.2018 15:00:00 14,3 6,7 20 54 0,0
16.02.2018 14:00:00 13,4 7,6 20 43 0,0
16.02.2018 13:00:00 12,6 8,1 20 27 -
16.02.2018 12:00:00 10,8 8,0 20 3 0,0
16.02.2018 11:00:00 8,5 7,8 20 0 0,0
16.02.2018 10:00:00 6,9 6,7 20 0 0,0
16.02.2018 09:00:00 4,5 4,3 9 0 0,0
16.02.2018 08:00:00 3,4 3,2 20 0 0,0
16.02.2018 07:00:00 2,6 2,7 20 0 -
16.02.2018 06:00:00 2,0 2,1 20 0 0,0
16.02.2018 05:00:00 1,6 1,7 0,4 0 0,0
16.02.2018 04:00:00 2,5 2,5 0,3 0 0,0
16.02.2018 03:00:00 3,0 3,0 0,4 0 0,0
16.02.2018 02:00:00 3,6 3,4 1,0 0 0,0
16.02.2018 01:00:00 4,3 3,9 2,0 0 -
16.02.2018 00:00:00 4,8 4,5 5 0 0,0
15.02.2018 23:00:00 5,3 5,0 1,5 0 0,0
15.02.2018 22:00:00 5,9 5,5 0,9 0 0,0
15.02.2018 21:00:00 6,5 5,8 4,4 0 0,0
15.02.2018 20:00:00 7,0 5,9 9 0 0,0
15.02.2018 19:00:00 7,6 6,1 17 0 -
15.02.2018 18:00:00 8,7 6,1 20 0 0,0
15.02.2018 17:00:00 9,3 6,4 20 15 0,0
15.02.2018 16:00:00 9,6 6,7 20 0 0,0

tt = Température de l'air
td = dewpoint
vv = visibility
sd = Ensoleillement
rr = Quantités de précipitations

stations d'obs. à proximité